createdAt,value
2023-03-18T00:02:25.271Z,21.23
2023-03-18T00:04:53.022Z,23.50
2023-03-18T00:07:19.880Z,24.63
2023-03-18T00:09:49.462Z,19.63
2023-03-18T00:12:17.287Z,20.80
2023-03-18T00:14:43.939Z,20.70
2023-03-18T00:17:10.875Z,18.23
2023-03-18T00:19:38.190Z,25.33
2023-03-18T00:22:04.907Z,20.77
2023-03-18T00:24:32.858Z,19.98
2023-03-18T00:26:59.540Z,18.25
2023-03-18T00:29:26.186Z,24.85
2023-03-18T00:31:52.792Z,21.95
2023-03-18T00:34:21.032Z,23.42
2023-03-18T00:36:50.900Z,20.27
2023-03-18T00:39:22.790Z,19.95
2023-03-18T00:41:50.791Z,15.70
2023-03-18T00:44:17.960Z,22.95
2023-03-18T00:46:44.583Z,20.55
2023-03-18T00:49:11.270Z,18.70
2023-03-18T00:51:38.647Z,27.30
2023-03-18T00:54:08.353Z,22.88
2023-03-18T00:56:37.750Z,24.25
2023-03-18T00:59:06.131Z,24.90
2023-03-18T01:01:33.585Z,16.92
2023-03-18T01:04:01.498Z,18.38
2023-03-18T01:06:31.479Z,18.48
2023-03-18T01:09:00.291Z,21.98
2023-03-18T01:11:27.993Z,21.50
2023-03-18T01:13:57.241Z,21.17
2023-03-18T01:16:24.244Z,19.73
2023-03-18T01:18:53.807Z,15.18
2023-03-18T01:21:20.521Z,17.23
2023-03-18T01:23:47.264Z,19.83
2023-03-18T01:26:14.406Z,19.40
2023-03-18T01:28:42.337Z,21.05
2023-03-18T01:31:09.755Z,15.98
2023-03-18T01:33:36.860Z,22.25
2023-03-18T01:36:05.102Z,18.85
2023-03-18T01:38:32.259Z,18.90
2023-03-18T01:41:02.042Z,14.88
2023-03-18T01:43:34.820Z,15.80
2023-03-18T01:46:23.298Z,20.83
2023-03-18T01:48:52.131Z,18.42
2023-03-18T01:51:20.290Z,17.50
2023-03-18T01:53:51.224Z,16.98
2023-03-18T01:56:20.670Z,21.52
2023-03-18T01:58:51.237Z,15.50
2023-03-18T02:01:28.861Z,13.70
2023-03-18T02:03:56.657Z,17.92
2023-03-18T02:06:24.481Z,19.20
2023-03-18T02:08:52.316Z,21.88
2023-03-18T02:11:19.182Z,19.63
2023-03-18T02:13:46.853Z,16.80
2023-03-18T02:16:20.308Z,12.63
2023-03-18T02:18:54.854Z,17.83
2023-03-18T02:24:28.445Z,15.85
2023-03-18T02:27:01.820Z,16.65
2023-03-18T02:29:32.574Z,18.50
2023-03-18T02:32:03.163Z,13.45
2023-03-18T02:34:30.965Z,19.50
2023-03-18T02:36:58.068Z,19.98
2023-03-18T02:39:26.434Z,13.18
2023-03-18T02:41:53.304Z,19.27
2023-03-18T02:44:21.347Z,13.63
2023-03-18T02:47:04.197Z,17.17
2023-03-18T02:49:32.801Z,11.82
2023-03-18T02:52:01.395Z,17.98
2023-03-18T02:54:30.596Z,14.40
2023-03-18T02:56:57.908Z,17.88
2023-03-18T02:59:25.603Z,14.20
2023-03-18T03:01:53.803Z,20.58
2023-03-18T03:04:23.701Z,18.63
2023-03-18T03:06:54.859Z,18.83
2023-03-18T03:09:22.700Z,14.77
2023-03-18T03:11:50.810Z,14.02
2023-03-18T03:14:19.241Z,21.27
2023-03-18T03:16:47.817Z,17.17
2023-03-18T03:19:16.858Z,26.23
2023-03-18T03:21:43.466Z,14.63
2023-03-18T03:24:10.263Z,19.17
2023-03-18T03:26:36.968Z,19.23
2023-03-18T03:29:05.120Z,18.17
2023-03-18T03:31:31.902Z,18.27
2023-03-18T03:33:58.925Z,19.05
2023-03-18T03:36:25.926Z,17.15
2023-03-18T03:38:54.209Z,15.80
2023-03-18T03:41:21.000Z,20.33
2023-03-18T03:43:47.694Z,22.15
2023-03-18T03:46:14.425Z,20.67
2023-03-18T03:48:41.350Z,18.20
2023-03-18T03:51:08.142Z,17.20
2023-03-18T03:53:36.163Z,18.98
2023-03-18T03:56:05.422Z,15.07
2023-03-18T03:58:32.026Z,22.98
2023-03-18T04:00:58.710Z,23.33
2023-03-18T04:03:25.768Z,20.08
2023-03-18T04:05:52.891Z,22.02
2023-03-18T04:08:19.929Z,20.85
2023-03-18T04:10:46.964Z,27.90
2023-03-18T04:13:13.713Z,19.77
2023-03-18T04:15:40.318Z,18.58
2023-03-18T04:18:08.317Z,19.90
2023-03-18T04:20:38.355Z,23.50
2023-03-18T04:23:06.134Z,25.45
2023-03-18T04:25:33.297Z,23.05
2023-03-18T04:28:00.013Z,19.58
2023-03-18T04:30:27.475Z,22.50
2023-03-18T04:32:56.208Z,23.77
2023-03-18T04:35:26.169Z,22.77
2023-03-18T04:37:55.603Z,29.90
2023-03-18T04:40:22.260Z,19.23
2023-03-18T04:42:49.102Z,24.35
2023-03-18T04:45:17.867Z,21.83
2023-03-18T04:47:45.319Z,19.40
2023-03-18T04:50:14.439Z,24.52
2023-03-18T04:52:42.084Z,22.40
2023-03-18T04:55:09.725Z,26.40
2023-03-18T04:57:38.499Z,24.23
2023-03-18T05:00:11.595Z,27.33
2023-03-18T05:02:39.885Z,23.92
2023-03-18T05:05:08.870Z,23.45
2023-03-18T05:07:35.593Z,27.48
2023-03-18T05:10:03.140Z,35.08
2023-03-18T05:12:29.738Z,28.73
2023-03-18T05:14:56.413Z,65.50
2023-03-18T05:17:23.066Z,23.33
2023-03-18T05:19:50.503Z,12.32
2023-03-18T05:22:19.330Z,26.30
2023-03-18T05:24:46.713Z,39.40
2023-03-18T05:27:15.326Z,24.38
2023-03-18T05:29:42.509Z,18.63
2023-03-18T05:32:10.618Z,20.95
2023-03-18T05:34:40.050Z,24.00
2023-03-18T05:37:08.754Z,20.17
2023-03-18T05:39:36.129Z,23.90
2023-03-18T05:42:05.892Z,23.65
2023-03-18T05:44:33.996Z,21.80
2023-03-18T05:47:01.661Z,20.50
2023-03-18T05:49:29.758Z,21.48
2023-03-18T05:51:57.033Z,23.10
2023-03-18T05:54:23.945Z,18.35
2023-03-18T05:56:52.494Z,26.70
2023-03-18T05:59:20.024Z,27.63
2023-03-18T06:01:47.021Z,20.85
2023-03-18T06:04:14.898Z,25.48
2023-03-18T06:06:42.163Z,19.38
2023-03-18T06:09:11.865Z,23.05
2023-03-18T06:11:40.209Z,22.60
2023-03-18T06:14:08.326Z,20.27
2023-03-18T06:16:35.804Z,21.20
2023-03-18T06:19:03.525Z,16.95
2023-03-18T06:21:33.001Z,21.98
2023-03-18T06:24:00.199Z,20.65
2023-03-18T06:26:27.709Z,22.02
2023-03-18T06:28:54.610Z,14.25
2023-03-18T06:31:22.485Z,17.90
2023-03-18T06:33:49.216Z,29.67
2023-03-18T06:36:19.422Z,28.60
2023-03-18T06:38:46.214Z,25.45
2023-03-18T06:41:13.304Z,24.75
2023-03-18T06:43:39.960Z,31.95
2023-03-18T06:46:07.800Z,22.27
2023-03-18T06:48:36.411Z,22.33
2023-03-18T06:51:05.128Z,28.15
2023-03-18T06:53:31.989Z,27.20
2023-03-18T06:55:59.109Z,25.27
2023-03-18T06:58:26.011Z,22.38
2023-03-18T07:00:52.832Z,21.80
2023-03-18T07:03:21.703Z,28.42
2023-03-18T07:05:50.049Z,27.85
2023-03-18T07:08:16.927Z,22.90
2023-03-18T07:10:43.628Z,23.65
2023-03-18T07:13:11.918Z,32.75
2023-03-18T07:15:40.347Z,28.73
2023-03-18T07:18:09.835Z,21.15
2023-03-18T07:20:40.395Z,25.65
2023-03-18T07:23:09.590Z,24.42
2023-03-18T07:25:36.731Z,17.27
2023-03-18T07:28:06.389Z,37.28
2023-03-18T07:30:34.075Z,27.25
2023-03-18T07:33:02.519Z,27.67
2023-03-18T07:35:29.287Z,20.67
2023-03-18T07:37:56.873Z,26.02
2023-03-18T07:40:24.348Z,22.10
2023-03-18T07:42:54.137Z,22.45
2023-03-18T07:45:20.888Z,19.13
2023-03-18T07:47:47.616Z,23.15
2023-03-18T07:50:14.417Z,26.52
2023-03-18T07:52:41.949Z,19.48
2023-03-18T07:55:09.271Z,30.75
2023-03-18T07:57:36.727Z,17.67
2023-03-18T08:00:08.119Z,20.30
2023-03-18T08:02:36.176Z,27.90
2023-03-18T08:05:03.692Z,30.17
2023-03-18T08:07:30.730Z,31.92
2023-03-18T08:09:57.337Z,28.10
2023-03-18T08:12:25.239Z,28.30
2023-03-18T08:14:52.239Z,18.55
2023-03-18T08:17:19.966Z,26.25
2023-03-18T08:19:50.072Z,27.67
2023-03-18T08:22:17.012Z,28.65
2023-03-18T08:24:46.659Z,35.65
2023-03-18T08:27:13.333Z,23.77
2023-03-18T08:29:41.455Z,24.25
2023-03-18T08:32:08.410Z,26.73
2023-03-18T08:34:35.942Z,19.05
2023-03-18T08:37:02.812Z,28.17
2023-03-18T08:39:29.441Z,23.45
2023-03-18T08:41:57.943Z,23.38
2023-03-18T08:44:24.733Z,29.98
2023-03-18T08:46:52.674Z,21.65
2023-03-18T08:49:19.781Z,20.27
2023-03-18T08:51:48.203Z,21.42
2023-03-18T08:54:14.828Z,19.98
2023-03-18T08:56:41.420Z,23.92
2023-03-18T08:59:08.515Z,21.73
2023-03-18T09:01:35.190Z,22.92
2023-03-18T09:04:01.875Z,18.85
2023-03-18T09:06:30.041Z,23.38
2023-03-18T09:08:58.786Z,19.48
2023-03-18T09:11:25.425Z,20.65
2023-03-18T09:13:52.350Z,23.25
2023-03-18T09:16:19.057Z,14.85
2023-03-18T09:18:48.699Z,16.23
2023-03-18T09:21:15.554Z,17.65
2023-03-18T09:23:42.172Z,22.90
2023-03-18T09:26:10.284Z,22.25
2023-03-18T09:28:37.288Z,22.08
2023-03-18T09:31:04.114Z,22.73
2023-03-18T09:33:31.869Z,18.27
2023-03-18T09:35:58.497Z,19.02
2023-03-18T09:38:25.159Z,21.27
2023-03-18T09:41:10.129Z,19.60
2023-03-18T09:43:46.982Z,27.95
2023-03-18T09:46:23.418Z,24.23
2023-03-18T09:49:16.733Z,23.02
2023-03-18T09:52:02.178Z,22.98
2023-03-18T09:54:39.684Z,22.95
2023-03-18T09:57:21.013Z,23.05
2023-03-18T09:59:54.828Z,30.05
2023-03-18T10:02:40.095Z,13.80
2023-03-18T10:05:16.823Z,16.48
2023-03-18T10:07:44.989Z,15.35
2023-03-18T10:10:40.095Z,17.30
2023-03-18T10:13:26.524Z,18.90
2023-03-18T10:15:57.052Z,12.85
2023-03-18T10:18:33.475Z,12.98
2023-03-18T10:21:10.338Z,21.90
2023-03-18T10:23:49.727Z,12.68
2023-03-18T10:26:42.385Z,15.15
2023-03-18T10:29:13.462Z,15.10
2023-03-18T10:32:06.103Z,14.48
2023-03-18T10:34:57.083Z,11.20
2023-03-18T10:37:51.796Z,9.13
2023-03-18T10:40:20.410Z,9.88
2023-03-18T10:42:50.546Z,11.75
2023-03-18T10:45:25.409Z,10.02
2023-03-18T10:48:15.980Z,9.38
2023-03-18T10:50:50.180Z,12.07
2023-03-18T10:53:23.535Z,15.27
2023-03-18T10:56:13.797Z,12.35
2023-03-18T10:58:42.250Z,13.63
2023-03-18T11:01:13.271Z,13.85
2023-03-18T11:03:50.405Z,12.05
2023-03-18T11:06:25.356Z,15.75
2023-03-18T11:09:02.942Z,16.33
2023-03-18T11:11:33.451Z,14.20
2023-03-18T11:14:02.438Z,10.80
2023-03-18T11:17:08.938Z,13.85
2023-03-18T11:19:47.897Z,15.27
2023-03-18T11:22:24.600Z,12.43
2023-03-18T11:25:13.870Z,12.05
2023-03-18T11:27:43.365Z,13.63
2023-03-18T11:30:33.927Z,10.43
2023-03-18T11:33:14.273Z,9.38
2023-03-18T11:35:52.471Z,12.75
2023-03-18T11:38:29.290Z,11.18
2023-03-18T11:41:23.358Z,8.68
2023-03-18T11:44:02.681Z,13.55
2023-03-18T11:46:47.729Z,12.32
2023-03-18T11:49:17.906Z,10.30
2023-03-18T11:52:23.134Z,15.52
2023-03-18T11:55:23.152Z,11.25
2023-03-18T11:58:31.397Z,10.20
2023-03-18T12:01:17.692Z,11.85
2023-03-18T12:04:05.930Z,11.07
2023-03-18T12:06:46.177Z,7.35
2023-03-18T12:09:30.436Z,9.98
2023-03-18T12:12:30.601Z,8.57
2023-03-18T12:15:15.715Z,6.80
2023-03-18T12:17:49.398Z,7.25
2023-03-18T12:20:29.275Z,7.30
2023-03-18T12:23:07.879Z,6.28
2023-03-18T12:26:02.639Z,6.72
2023-03-18T12:28:34.090Z,5.32
2023-03-18T12:31:17.242Z,3.50
2023-03-18T12:34:04.259Z,6.25
2023-03-18T12:36:44.481Z,5.65
2023-03-18T12:39:32.344Z,3.00
2023-03-18T12:42:09.473Z,4.63
2023-03-18T12:44:36.619Z,3.47
2023-03-18T12:47:37.447Z,3.35
2023-03-18T12:50:16.385Z,3.35
2023-03-18T12:52:44.170Z,2.45
2023-03-18T12:55:41.207Z,3.50
2023-03-18T12:58:17.758Z,4.38
2023-03-18T13:00:49.026Z,4.43
2023-03-18T13:03:36.329Z,4.07
2023-03-18T13:06:15.652Z,4.03
2023-03-18T13:08:47.198Z,3.33
2023-03-18T13:11:46.067Z,3.45
2023-03-18T13:14:37.146Z,3.88
2023-03-18T13:17:10.342Z,2.45
2023-03-18T13:19:39.136Z,2.55
2023-03-18T13:22:13.512Z,3.70
2023-03-18T13:24:40.058Z,2.05
2023-03-18T13:27:09.695Z,2.95
2023-03-18T13:30:13.207Z,3.25
2023-03-18T13:32:49.810Z,3.70
2023-03-18T13:35:23.221Z,3.00
2023-03-18T13:38:03.566Z,3.00
2023-03-18T13:40:58.086Z,2.88
2023-03-18T13:43:27.829Z,2.70
2023-03-18T13:45:57.426Z,2.25
2023-03-18T13:48:40.767Z,2.80
2023-03-18T13:51:25.389Z,2.63
2023-03-18T13:54:05.065Z,4.43
2023-03-18T13:56:45.158Z,1.70
2023-03-18T13:59:33.260Z,1.70
2023-03-18T14:02:25.645Z,2.22
2023-03-18T14:04:53.300Z,1.38
2023-03-18T14:07:22.298Z,1.88
2023-03-18T14:10:08.342Z,4.32
2023-03-18T14:12:46.099Z,1.75
2023-03-18T14:15:15.737Z,2.50
2023-03-18T14:18:03.633Z,1.52
2023-03-18T14:20:42.200Z,2.22
2023-03-18T14:23:22.266Z,1.25
2023-03-18T14:26:03.912Z,2.30
2023-03-18T14:28:45.664Z,2.03
2023-03-18T14:31:21.310Z,20.42
2023-03-18T14:34:23.922Z,3.47
2023-03-18T14:36:53.297Z,2.55
2023-03-18T14:39:49.098Z,2.78
2023-03-18T14:42:50.733Z,2.38
2023-03-18T14:45:34.510Z,1.65
2023-03-18T14:48:11.666Z,3.25
2023-03-18T14:50:47.243Z,2.33
2023-03-18T14:53:35.657Z,1.45
2023-03-18T14:56:04.123Z,1.60
2023-03-18T14:58:30.917Z,1.48
2023-03-18T15:01:13.280Z,2.55
2023-03-18T15:03:44.783Z,1.50
2023-03-18T15:06:22.976Z,1.83
2023-03-18T15:08:58.036Z,1.63
2023-03-18T15:11:26.109Z,1.48
2023-03-18T15:14:00.082Z,1.00
2023-03-18T15:16:32.941Z,2.40
2023-03-18T15:19:00.295Z,1.20
2023-03-18T15:21:32.478Z,1.88
2023-03-18T15:24:09.454Z,0.88
2023-03-18T15:26:41.412Z,1.33
2023-03-18T15:29:35.413Z,1.27
2023-03-18T15:32:17.357Z,1.20
2023-03-18T15:34:47.210Z,2.70
2023-03-18T15:37:33.778Z,4.80
2023-03-18T15:40:23.719Z,1.25
2023-03-18T15:42:50.878Z,1.65
2023-03-18T15:45:21.523Z,1.92
2023-03-18T15:47:48.599Z,1.30
2023-03-18T15:50:26.354Z,1.50
2023-03-18T15:53:03.908Z,1.20
2023-03-18T15:55:48.629Z,1.00
2023-03-18T15:58:25.000Z,1.38
2023-03-18T16:00:52.834Z,1.10
2023-03-18T16:03:25.206Z,1.05
2023-03-18T16:05:53.383Z,2.10
2023-03-18T16:08:21.156Z,4.75
2023-03-18T16:10:50.131Z,1.80
2023-03-18T16:13:23.442Z,2.08
2023-03-18T16:15:51.143Z,1.30
2023-03-18T16:18:18.248Z,2.38
2023-03-18T16:20:47.087Z,1.08
2023-03-18T16:23:17.902Z,1.63
2023-03-18T16:25:48.386Z,1.20
2023-03-18T16:28:27.733Z,0.90
2023-03-18T16:30:56.195Z,1.10
2023-03-18T16:33:24.845Z,0.85
2023-03-18T16:35:58.692Z,1.02
2023-03-18T16:38:28.043Z,0.52
2023-03-18T16:40:56.024Z,0.85
2023-03-18T16:43:29.046Z,0.80
2023-03-18T16:46:00.560Z,0.90
2023-03-18T16:48:28.426Z,1.33
2023-03-18T16:50:57.438Z,1.40
2023-03-18T16:53:27.215Z,0.80
2023-03-18T16:56:00.224Z,0.90
2023-03-18T16:58:33.894Z,2.08
2023-03-18T17:01:00.924Z,1.27
2023-03-18T17:03:29.335Z,1.10
2023-03-18T17:05:57.434Z,0.77
2023-03-18T17:08:24.492Z,0.75
2023-03-18T17:10:56.823Z,0.80
2023-03-18T17:13:27.325Z,0.70
2023-03-18T17:15:56.186Z,0.70
2023-03-18T17:18:24.619Z,1.33
2023-03-18T17:20:52.175Z,1.10
2023-03-18T17:23:21.775Z,0.90
2023-03-18T17:25:52.385Z,0.90
2023-03-18T17:28:33.000Z,14.73
2023-03-18T17:31:00.084Z,11.55
2023-03-18T17:33:32.270Z,1.35
2023-03-18T17:36:00.521Z,1.65
2023-03-18T17:38:29.214Z,1.35
2023-03-18T17:40:56.704Z,0.93
2023-03-18T17:43:27.862Z,1.40
2023-03-18T17:45:56.611Z,1.60
2023-03-18T17:48:25.676Z,1.55
2023-03-18T17:51:27.521Z,2.33
2023-03-18T17:53:59.131Z,4.78
2023-03-18T17:56:27.856Z,6.65
2023-03-18T17:58:56.305Z,7.57
2023-03-18T18:01:27.183Z,7.15
2023-03-18T18:03:59.113Z,3.60
2023-03-18T18:06:29.314Z,3.33
2023-03-18T18:09:01.004Z,2.17
2023-03-18T18:11:39.739Z,3.75
2023-03-18T18:14:21.205Z,3.45
2023-03-18T18:16:50.076Z,0.93
2023-03-18T18:19:17.193Z,5.53
2023-03-18T18:21:46.511Z,5.80
2023-03-18T18:24:20.493Z,9.65
2023-03-18T18:26:47.136Z,2.78
2023-03-18T18:29:19.322Z,1.92
2023-03-18T18:31:48.380Z,1.60
2023-03-18T18:34:16.034Z,1.63
2023-03-18T18:36:43.128Z,3.80
2023-03-18T18:39:10.923Z,4.55
2023-03-18T18:41:38.917Z,1.60
2023-03-18T18:44:07.025Z,1.63
2023-03-18T18:46:34.967Z,1.10
2023-03-18T18:49:01.779Z,1.67
2023-03-18T18:51:29.082Z,2.22
2023-03-18T18:53:56.060Z,1.40
2023-03-18T18:56:34.279Z,2.97
2023-03-18T18:59:03.045Z,1.30
2023-03-18T19:01:31.080Z,1.17
2023-03-18T19:03:57.862Z,1.50
2023-03-18T19:06:31.363Z,1.45
2023-03-18T19:09:04.061Z,3.78
2023-03-18T19:11:30.762Z,1.20
2023-03-18T19:14:20.054Z,1.23
2023-03-18T19:16:49.340Z,1.10
2023-03-18T19:19:20.426Z,1.00
2023-03-18T19:21:47.927Z,1.20
2023-03-18T19:24:28.519Z,0.80
2023-03-18T19:26:58.511Z,1.88
2023-03-18T19:29:27.483Z,1.67
2023-03-18T19:31:54.916Z,1.02
2023-03-18T19:34:22.171Z,0.93
2023-03-18T19:36:53.135Z,1.20
2023-03-18T19:39:22.131Z,0.80
2023-03-18T19:41:49.080Z,0.70
2023-03-18T19:44:21.093Z,0.90
2023-03-18T19:46:50.778Z,1.00
2023-03-18T19:49:24.791Z,0.90
2023-03-18T19:51:52.222Z,1.02
2023-03-18T19:54:33.731Z,1.83
2023-03-18T19:57:04.249Z,1.27
2023-03-18T19:59:39.886Z,1.08
2023-03-18T20:02:30.551Z,2.25
2023-03-18T20:04:59.784Z,1.10
2023-03-18T20:07:29.437Z,0.85
2023-03-18T20:09:56.455Z,0.70
2023-03-18T20:12:34.777Z,1.00
2023-03-18T20:15:01.462Z,1.15
2023-03-18T20:17:41.567Z,1.42
2023-03-18T20:20:14.461Z,1.42
2023-03-18T20:22:48.207Z,1.17
2023-03-18T20:25:28.709Z,3.50
2023-03-18T20:27:57.167Z,0.90
2023-03-18T20:30:25.655Z,1.10
2023-03-18T20:32:53.631Z,3.00
2023-03-18T20:35:21.376Z,2.90
2023-03-18T20:37:49.747Z,1.88
2023-03-18T20:40:23.318Z,2.17
2023-03-18T20:42:51.707Z,5.00
2023-03-18T20:45:19.196Z,5.47
2023-03-18T20:47:46.685Z,1.88
2023-03-18T20:50:19.369Z,2.97
2023-03-18T20:52:47.876Z,1.73
2023-03-18T20:55:26.944Z,1.45
2023-03-18T20:57:55.690Z,1.60
2023-03-18T21:00:26.326Z,1.58
2023-03-18T21:02:55.210Z,1.92
2023-03-18T21:05:22.245Z,1.58
2023-03-18T21:07:49.087Z,1.25
2023-03-18T21:10:21.792Z,1.52
2023-03-18T21:12:49.803Z,1.77
2023-03-18T21:15:27.115Z,1.58
2023-03-18T21:17:54.312Z,1.65
2023-03-18T21:20:27.245Z,0.90
2023-03-18T21:22:54.716Z,1.95
2023-03-18T21:25:24.469Z,2.38
2023-03-18T21:27:53.006Z,0.90
2023-03-18T21:30:22.039Z,0.80
2023-03-18T21:32:51.818Z,2.63
2023-03-18T21:35:24.872Z,0.75
2023-03-18T21:37:53.651Z,1.92
2023-03-18T21:40:25.070Z,0.88
2023-03-18T21:42:53.359Z,0.60
2023-03-18T21:45:22.893Z,1.15
2023-03-18T21:47:50.942Z,3.03
2023-03-18T21:50:24.121Z,0.95
2023-03-18T21:52:53.346Z,1.10
2023-03-18T21:55:21.649Z,3.22
2023-03-18T21:57:49.186Z,1.52
2023-03-18T22:00:19.284Z,0.85
2023-03-18T22:02:46.852Z,0.80
2023-03-18T22:05:22.918Z,0.70
2023-03-18T22:07:50.868Z,0.70
2023-03-18T22:10:23.292Z,2.88
2023-03-18T22:12:50.527Z,0.93
2023-03-18T22:15:24.106Z,0.60
2023-03-18T22:17:51.778Z,1.13
2023-03-18T22:20:20.868Z,1.10
2023-03-18T22:22:48.691Z,1.33
2023-03-18T22:25:29.451Z,0.77
2023-03-18T22:27:58.037Z,0.75
2023-03-18T22:30:29.395Z,0.73
2023-03-18T22:32:57.042Z,0.68
2023-03-18T22:35:26.793Z,0.70
2023-03-18T22:37:54.316Z,0.85
2023-03-18T22:40:28.023Z,0.95
2023-03-18T22:43:00.413Z,0.63
2023-03-18T22:45:34.433Z,0.80
2023-03-18T22:48:03.205Z,0.93
2023-03-18T22:50:33.692Z,0.80
2023-03-18T22:53:05.626Z,0.90
2023-03-18T22:55:35.742Z,0.80
2023-03-18T22:58:02.899Z,0.80
2023-03-18T23:00:37.472Z,1.27
2023-03-18T23:03:11.441Z,1.10
2023-03-18T23:05:39.549Z,0.98
2023-03-18T23:08:06.595Z,0.90
2023-03-18T23:10:33.583Z,1.20
2023-03-18T23:13:01.494Z,1.13
2023-03-18T23:15:29.492Z,1.30
2023-03-18T23:17:56.088Z,2.63
2023-03-18T23:20:22.720Z,3.67
2023-03-18T23:22:49.312Z,2.67
2023-03-18T23:25:17.941Z,2.80
2023-03-18T23:27:45.482Z,2.05
2023-03-18T23:30:14.629Z,2.03
2023-03-18T23:32:41.734Z,4.40
2023-03-18T23:35:10.573Z,2.92
2023-03-18T23:37:37.172Z,4.40
2023-03-18T23:40:05.655Z,2.20
2023-03-18T23:42:32.367Z,3.22
2023-03-18T23:44:58.998Z,2.17
2023-03-18T23:47:25.805Z,3.00
2023-03-18T23:49:53.667Z,1.55
2023-03-18T23:52:20.571Z,2.20
2023-03-18T23:54:48.382Z,1.65
2023-03-18T23:57:14.986Z,0.93
2023-03-18T23:59:42.565Z,2.28
